createdAt,value
2023-01-12T04:02:27.477Z,96665.69
2023-01-12T04:04:54.004Z,96644.00
2023-01-12T04:07:20.518Z,96663.28
2023-01-12T04:09:46.961Z,96658.06
2023-01-12T04:12:13.533Z,96643.16
2023-01-12T04:14:42.346Z,96648.84
2023-01-12T04:17:11.027Z,96637.75
2023-01-12T04:19:37.700Z,96650.34
2023-01-12T04:22:23.087Z,96634.22
2023-01-12T04:24:49.824Z,96640.78
2023-01-12T04:27:17.138Z,96651.31
2023-01-12T04:29:44.155Z,96647.06
2023-01-12T04:32:11.018Z,96642.91
2023-01-12T04:34:39.199Z,96638.75
2023-01-12T04:37:05.663Z,96652.84
2023-01-12T04:39:32.106Z,96628.63
2023-01-12T04:41:58.561Z,96642.69
2023-01-12T04:44:25.010Z,96655.94
2023-01-12T04:46:51.595Z,96652.47
2023-01-12T04:49:18.261Z,96655.75
2023-01-12T04:51:45.278Z,96647.63
2023-01-12T04:54:12.162Z,96664.06
2023-01-12T04:56:38.592Z,96655.09
2023-01-12T04:59:06.871Z,96654.59
2023-01-12T05:01:33.437Z,96641.47
2023-01-12T05:04:00.705Z,96648.38
2023-01-12T05:06:28.195Z,96632.75
2023-01-12T05:09:13.926Z,96655.25
2023-01-12T05:11:40.487Z,96656.50
2023-01-12T05:14:06.910Z,96656.03
2023-01-12T05:16:33.434Z,96647.44
2023-01-12T05:18:59.990Z,96650.81
2023-01-12T05:21:26.440Z,96644.63
2023-01-12T05:23:53.389Z,96638.72
2023-01-12T05:26:20.381Z,96642.66
2023-01-12T05:28:50.943Z,96638.81
2023-01-12T05:31:19.444Z,96642.97
2023-01-12T05:33:46.254Z,96631.47
2023-01-12T05:36:15.233Z,96637.38
2023-01-12T05:38:41.931Z,96642.50
2023-01-12T05:41:11.876Z,96638.94
2023-01-12T05:43:50.437Z,96646.16
2023-01-12T05:46:23.973Z,96649.19
2023-01-12T05:48:52.234Z,96647.06
2023-01-12T05:51:19.559Z,96646.84
2023-01-12T05:53:46.123Z,96654.09
2023-01-12T05:56:20.356Z,96648.22
2023-01-12T05:58:55.932Z,96652.91
2023-01-12T06:01:23.013Z,96659.28
2023-01-12T06:03:51.114Z,96654.66
2023-01-12T06:06:19.049Z,96654.59
2023-01-12T06:08:46.165Z,96643.75
2023-01-12T06:11:32.694Z,96640.84
2023-01-12T06:14:00.669Z,96650.13
2023-01-12T06:16:28.133Z,96644.44
2023-01-12T06:18:54.925Z,96642.13
2023-01-12T06:21:21.983Z,96631.19
2023-01-12T06:23:48.505Z,96632.19
2023-01-12T06:26:15.053Z,96638.75
2023-01-12T06:28:42.919Z,96618.75
2023-01-12T06:31:11.416Z,96620.97
2023-01-12T06:33:37.949Z,96619.03
2023-01-12T06:36:04.697Z,96620.09
2023-01-12T06:38:33.784Z,96620.78
2023-01-12T06:41:05.156Z,96626.75
2023-01-12T06:43:32.173Z,96620.38
2023-01-12T06:45:59.440Z,96620.69
2023-01-12T06:48:26.087Z,96618.06
2023-01-12T06:51:02.146Z,96627.88
2023-01-12T06:53:28.588Z,96635.72
2023-01-12T06:55:55.046Z,96635.91
2023-01-12T06:58:21.504Z,96631.00
2023-01-12T07:00:47.947Z,96621.44
2023-01-12T07:03:19.303Z,96632.31
2023-01-12T07:05:46.115Z,96632.06
2023-01-12T07:08:16.039Z,96632.16
2023-01-12T07:10:43.296Z,96627.91
2023-01-12T07:13:10.005Z,96614.56
2023-01-12T07:15:36.928Z,96620.69
2023-01-12T07:18:03.719Z,96629.28
2023-01-12T07:20:30.486Z,96632.16
2023-01-12T07:22:56.935Z,96632.16
2023-01-12T07:25:25.064Z,96634.91
2023-01-12T07:27:53.224Z,96635.03
2023-01-12T07:30:21.327Z,96638.22
2023-01-12T07:32:48.998Z,96634.78
2023-01-12T07:35:16.065Z,96640.00
2023-01-12T07:37:50.203Z,96635.66
2023-01-12T07:40:17.905Z,96626.03
2023-01-12T07:42:44.406Z,96625.09
2023-01-12T07:45:11.680Z,96627.38
2023-01-12T07:47:38.155Z,96629.88
2023-01-12T07:50:05.281Z,96638.38
2023-01-12T07:52:31.988Z,96631.72
2023-01-12T07:54:58.428Z,96634.03
2023-01-12T07:57:24.916Z,96635.59
2023-01-12T07:59:51.348Z,96635.50
2023-01-12T08:02:19.285Z,96635.53
2023-01-12T08:04:46.794Z,96634.53
2023-01-12T08:07:13.815Z,96625.34
2023-01-12T08:09:40.415Z,96630.13
2023-01-12T08:12:06.892Z,96627.84
2023-01-12T08:14:39.116Z,96632.97
2023-01-12T08:17:14.193Z,96631.78
2023-01-12T08:19:50.203Z,96619.50
2023-01-12T08:22:25.106Z,96639.06
2023-01-12T08:25:00.176Z,96627.78
2023-01-12T08:27:29.566Z,96641.44
2023-01-12T08:29:58.667Z,96633.91
2023-01-12T08:32:28.140Z,96641.69
2023-01-12T08:34:59.392Z,96638.16
2023-01-12T08:37:29.093Z,96642.00
2023-01-12T08:39:55.962Z,96631.06
2023-01-12T08:42:26.414Z,96635.59
2023-01-12T08:44:54.881Z,96621.09
2023-01-12T08:47:30.412Z,96635.44
2023-01-12T08:50:02.872Z,96628.22
2023-01-12T08:52:29.643Z,96640.22
2023-01-12T08:54:56.490Z,96646.13
2023-01-12T08:57:23.121Z,96657.84
2023-01-12T08:59:49.759Z,96659.69
2023-01-12T09:02:16.530Z,96645.72
2023-01-12T09:04:43.231Z,96649.25
2023-01-12T09:07:10.976Z,96652.06
2023-01-12T09:09:37.866Z,96638.66
2023-01-12T09:12:05.693Z,96653.00
2023-01-12T09:14:38.418Z,96641.44
2023-01-12T09:17:07.246Z,96640.22
2023-01-12T09:19:34.235Z,96628.16
2023-01-12T09:22:00.668Z,96636.03
2023-01-12T09:24:28.037Z,96631.88
2023-01-12T09:26:54.616Z,96628.44
2023-01-12T09:29:21.131Z,96629.81
2023-01-12T09:31:47.621Z,96633.81
2023-01-12T09:34:14.222Z,96618.84
2023-01-12T09:36:41.482Z,96628.22
2023-01-12T09:39:10.445Z,96621.81
2023-01-12T09:42:02.455Z,96628.41
2023-01-12T09:44:47.383Z,96622.72
2023-01-12T09:47:35.784Z,96616.38
2023-01-12T09:50:19.571Z,96616.03
2023-01-12T09:52:45.994Z,96607.59
2023-01-12T09:55:19.069Z,96603.53
2023-01-12T09:58:06.903Z,96612.47
2023-01-12T10:00:33.724Z,96603.88
2023-01-12T10:03:07.779Z,96611.22
2023-01-12T10:05:55.229Z,96601.81
2023-01-12T10:08:31.962Z,96595.66
2023-01-12T10:11:08.291Z,96589.31
2023-01-12T10:14:16.636Z,96592.19
2023-01-12T10:17:11.188Z,96589.41
2023-01-12T10:20:09.346Z,96581.59
2023-01-12T10:22:47.658Z,96564.16
2023-01-12T10:25:14.067Z,96581.41
2023-01-12T10:27:43.417Z,96572.16
2023-01-12T10:30:35.434Z,96575.56
2023-01-12T10:33:26.202Z,96563.91
2023-01-12T10:36:01.667Z,96573.94
2023-01-12T10:38:38.287Z,96559.25
2023-01-12T10:41:10.587Z,96559.91
2023-01-12T10:43:38.218Z,96563.44
2023-01-12T10:46:13.766Z,96551.81
2023-01-12T10:48:43.480Z,96534.97
2023-01-12T10:51:34.233Z,96542.81
2023-01-12T10:54:09.454Z,96524.59
2023-01-12T10:56:39.338Z,96534.16
2023-01-12T10:59:21.934Z,96519.25
2023-01-12T11:02:07.873Z,96515.81
2023-01-12T11:04:49.838Z,96520.00
2023-01-12T11:07:19.312Z,96504.94
2023-01-12T11:09:46.125Z,96514.56
2023-01-12T11:12:21.386Z,96517.66
2023-01-12T11:14:57.716Z,96505.84
2023-01-12T11:17:51.097Z,96502.25
2023-01-12T11:20:28.598Z,96513.53
2023-01-12T11:23:00.590Z,96508.31
2023-01-12T11:25:30.043Z,96512.97
2023-01-12T11:28:42.466Z,96508.56
2023-01-12T11:31:16.728Z,96492.59
2023-01-12T11:33:58.599Z,96497.19
2023-01-12T11:36:34.321Z,96496.13
2023-01-12T11:39:06.999Z,96491.41
2023-01-12T11:42:08.173Z,96482.75
2023-01-12T11:44:45.625Z,96477.72
2023-01-12T11:47:20.510Z,96469.41
2023-01-12T11:49:59.935Z,96462.91
2023-01-12T11:52:28.039Z,96458.66
2023-01-12T11:54:55.258Z,96457.09
2023-01-12T11:57:49.311Z,96464.56
2023-01-12T12:00:18.492Z,96465.84
2023-01-12T12:03:08.281Z,96456.19
2023-01-12T12:05:51.983Z,96447.22
2023-01-12T12:08:36.638Z,96439.03
2023-01-12T12:11:23.454Z,96448.88
2023-01-12T12:14:15.008Z,96445.50
2023-01-12T12:16:50.708Z,96448.91
2023-01-12T12:19:36.594Z,96426.84
2023-01-12T12:22:38.893Z,96443.53
2023-01-12T12:25:33.783Z,96444.97
2023-01-12T12:28:18.745Z,96446.16
2023-01-12T12:31:23.810Z,96451.53
2023-01-12T12:34:10.534Z,96426.44
2023-01-12T12:36:45.853Z,96430.47
2023-01-12T12:39:25.793Z,96426.78
2023-01-12T12:42:30.175Z,96425.97
2023-01-12T12:45:21.430Z,96422.59
2023-01-12T12:48:06.542Z,96426.97
2023-01-12T12:50:54.334Z,96428.84
2023-01-12T12:53:23.902Z,96421.59
2023-01-12T12:55:53.010Z,96416.66
2023-01-12T12:58:22.476Z,96420.06
2023-01-12T13:00:53.971Z,96410.41
2023-01-12T13:03:39.540Z,96421.50
2023-01-12T13:06:26.900Z,96419.88
2023-01-12T13:08:56.673Z,96425.13
2023-01-12T13:11:48.074Z,96425.03
2023-01-12T13:14:26.841Z,96424.13
2023-01-12T13:16:59.016Z,96430.16
2023-01-12T13:19:40.714Z,96434.78
2023-01-12T13:22:46.474Z,96431.28
2023-01-12T13:25:15.990Z,96418.22
2023-01-12T13:27:48.581Z,96421.72
2023-01-12T13:30:23.064Z,96408.13
2023-01-12T13:32:58.574Z,96407.59
2023-01-12T13:35:27.969Z,96402.13
2023-01-12T13:38:05.010Z,96392.47
2023-01-12T13:40:32.445Z,96409.56
2023-01-12T13:43:15.688Z,96418.31
2023-01-12T13:46:06.555Z,96400.34
2023-01-12T13:48:39.197Z,96402.66
2023-01-12T13:51:21.993Z,96402.97
2023-01-12T13:54:00.492Z,96406.38
2023-01-12T13:56:27.971Z,96399.44
2023-01-12T13:59:03.845Z,96397.47
2023-01-12T14:01:35.435Z,96409.31
2023-01-12T14:04:18.751Z,96402.72
2023-01-12T14:07:05.953Z,96401.00
2023-01-12T14:09:53.795Z,96395.72
2023-01-12T14:12:35.371Z,96393.97
2023-01-12T14:15:41.947Z,96392.75
2023-01-12T14:18:16.899Z,96404.28
2023-01-12T14:20:47.977Z,96401.31
2023-01-12T14:23:28.614Z,96399.03
2023-01-12T14:26:16.440Z,96396.06
2023-01-12T14:28:47.718Z,96396.28
2023-01-12T14:31:30.180Z,96389.16
2023-01-12T14:33:59.609Z,96394.88
2023-01-12T14:36:30.029Z,96393.09
2023-01-12T14:38:59.396Z,96387.75
2023-01-12T14:41:47.538Z,96403.31
2023-01-12T14:44:44.293Z,96393.75
2023-01-12T14:47:23.408Z,96406.38
2023-01-12T14:49:50.259Z,96398.81
2023-01-12T14:52:16.667Z,96405.47
2023-01-12T14:54:43.845Z,96400.22
2023-01-12T14:57:34.015Z,96391.56
2023-01-12T15:00:02.921Z,96393.97
2023-01-12T15:02:35.201Z,96383.75
2023-01-12T15:05:06.814Z,96389.06
2023-01-12T15:07:39.751Z,96394.53
2023-01-12T15:10:09.185Z,96387.16
2023-01-12T15:12:39.029Z,96381.81
2023-01-12T15:15:23.834Z,96376.28
2023-01-12T15:18:11.027Z,96381.63
2023-01-12T15:21:00.400Z,96392.94
2023-01-12T15:23:49.862Z,96387.22
2023-01-12T15:26:16.765Z,96390.13
2023-01-12T15:28:44.758Z,96386.13
2023-01-12T15:31:22.917Z,96392.28
2023-01-12T15:33:49.507Z,96389.09
2023-01-12T15:36:16.023Z,96387.75
2023-01-12T15:38:42.712Z,96371.44
2023-01-12T15:41:16.863Z,96395.44
2023-01-12T15:43:43.382Z,96392.31
2023-01-12T15:46:19.086Z,96372.06
2023-01-12T15:48:45.591Z,96390.78
2023-01-12T15:51:15.971Z,96388.34
2023-01-12T15:53:42.439Z,96388.00
2023-01-12T15:56:12.492Z,96395.31
2023-01-12T15:58:38.948Z,96389.56
2023-01-12T16:01:10.269Z,96390.44
2023-01-12T16:04:04.745Z,96387.38
2023-01-12T16:06:30.102Z,96392.03
2023-01-12T16:08:56.567Z,96388.31
2023-01-12T16:11:24.410Z,96378.63
2023-01-12T16:13:51.373Z,96379.03
2023-01-12T16:16:18.851Z,96376.00
2023-01-12T16:18:45.372Z,96364.31
2023-01-12T16:21:16.444Z,96364.75
2023-01-12T16:23:42.938Z,96358.59
2023-01-12T16:26:14.325Z,96362.28
2023-01-12T16:28:40.982Z,96362.41
2023-01-12T16:31:12.699Z,96358.22
2023-01-12T16:33:40.640Z,96350.50
2023-01-12T16:36:08.120Z,96358.38
2023-01-12T16:38:35.268Z,96353.06
2023-01-12T16:41:22.316Z,96363.19
2023-01-12T16:43:49.601Z,96363.28
2023-01-12T16:46:16.713Z,96354.34
2023-01-12T16:48:43.742Z,96355.00
2023-01-12T16:51:18.035Z,96356.41
2023-01-12T16:53:45.036Z,96351.81
2023-01-12T16:56:13.315Z,96367.31
2023-01-12T16:58:41.946Z,96369.78
2023-01-12T17:01:14.277Z,96353.38
2023-01-12T17:03:44.429Z,96358.25
2023-01-12T17:06:13.665Z,96360.91
2023-01-12T17:08:41.597Z,96363.72
2023-01-12T17:11:10.147Z,96361.28
2023-01-12T17:13:37.163Z,96362.81
2023-01-12T17:16:06.561Z,96354.63
2023-01-12T17:18:33.609Z,96358.91
2023-01-12T17:21:01.967Z,96356.13
2023-01-12T17:23:28.926Z,96356.88
2023-01-12T17:25:55.810Z,96334.78
2023-01-12T17:28:22.604Z,96363.72
2023-01-12T17:30:49.245Z,96340.47
2023-01-12T17:33:16.496Z,96359.78
2023-01-12T17:35:43.227Z,96352.66
2023-01-12T17:38:09.792Z,96357.50
2023-01-12T17:40:39.008Z,96344.25
2023-01-12T17:43:08.051Z,96345.47
2023-01-12T17:45:42.456Z,96347.94
2023-01-12T17:48:11.845Z,96344.41
2023-01-12T17:50:40.305Z,96348.69
2023-01-12T17:53:09.366Z,96341.00
2023-01-12T17:55:47.584Z,96347.00
2023-01-12T17:58:17.428Z,96351.63
2023-01-12T18:00:44.253Z,96353.28
2023-01-12T18:03:11.206Z,96347.47
2023-01-12T18:05:37.647Z,96346.06
2023-01-12T18:08:04.129Z,96362.88
2023-01-12T18:10:30.548Z,96356.53
2023-01-12T18:12:57.033Z,96353.75
2023-01-12T18:15:23.976Z,96343.09
2023-01-12T18:17:50.603Z,96349.59
2023-01-12T18:20:17.150Z,96344.63
2023-01-12T18:22:43.650Z,96351.59
2023-01-12T18:25:10.264Z,96342.47
2023-01-12T18:27:36.769Z,96344.13
2023-01-12T18:30:03.720Z,96329.44
2023-01-12T18:32:30.349Z,96342.97
2023-01-12T18:34:58.112Z,96338.66
2023-01-12T18:37:24.709Z,96335.13
2023-01-12T18:39:51.581Z,96324.88
2023-01-12T18:42:36.664Z,96324.53
2023-01-12T18:45:04.760Z,96325.44
2023-01-12T18:47:49.908Z,96322.00
2023-01-12T18:50:35.529Z,96321.84
2023-01-12T18:53:20.616Z,96317.88
2023-01-12T18:55:48.230Z,96323.22
2023-01-12T18:58:14.734Z,96319.97
2023-01-12T19:00:41.364Z,96318.47
2023-01-12T19:03:07.914Z,96319.75
2023-01-12T19:05:46.282Z,96320.50
2023-01-12T19:08:31.345Z,96310.31
2023-01-12T19:11:07.043Z,96301.84
2023-01-12T19:13:52.193Z,96299.22
2023-01-12T19:16:37.155Z,96299.53
2023-01-12T19:19:03.653Z,96298.63
2023-01-12T19:21:48.843Z,96294.59
2023-01-12T19:24:33.714Z,96286.59
2023-01-12T19:27:18.911Z,96287.47
2023-01-12T19:29:45.371Z,96285.84
2023-01-12T19:32:11.827Z,96280.75
2023-01-12T19:34:38.385Z,96282.13
2023-01-12T19:37:05.488Z,96276.31
2023-01-12T19:39:59.596Z,96271.09
2023-01-12T19:42:47.274Z,96283.94
2023-01-12T19:45:14.470Z,96281.03
2023-01-12T19:47:41.020Z,96285.66
2023-01-12T19:50:09.637Z,96276.13
2023-01-12T19:52:38.159Z,96279.56
2023-01-12T19:55:07.777Z,96269.13
2023-01-12T19:57:35.633Z,96263.19
2023-01-12T20:00:04.544Z,96257.69
2023-01-12T20:02:31.104Z,96260.56
2023-01-12T20:04:59.027Z,96250.59
2023-01-12T20:07:25.930Z,96261.75
2023-01-12T20:09:52.368Z,96264.81
2023-01-12T20:12:18.809Z,96260.50
2023-01-12T20:14:45.235Z,96262.84
2023-01-12T20:17:11.728Z,96245.19
2023-01-12T20:19:38.234Z,96229.91
2023-01-12T20:22:04.710Z,96250.50
2023-01-12T20:24:31.134Z,96248.28
2023-01-12T20:26:57.596Z,96243.84
2023-01-12T20:29:24.175Z,96244.97
2023-01-12T20:31:52.517Z,96240.03
2023-01-12T20:34:20.753Z,96245.16
2023-01-12T20:36:47.892Z,96240.34
2023-01-12T20:39:15.610Z,96234.31
2023-01-12T20:41:42.693Z,96228.59
2023-01-12T20:44:15.463Z,96242.53
2023-01-12T20:46:42.417Z,96239.59
2023-01-12T20:49:09.656Z,96243.69
2023-01-12T20:51:36.547Z,96239.25
2023-01-12T20:54:04.819Z,96244.19
2023-01-12T20:56:31.974Z,96243.59
2023-01-12T20:58:59.157Z,96229.50
2023-01-12T21:01:25.750Z,96235.38
2023-01-12T21:03:52.400Z,96239.72
2023-01-12T21:06:19.017Z,96244.63
2023-01-12T21:08:46.909Z,96236.34
2023-01-12T21:11:19.689Z,96246.03
2023-01-12T21:13:46.847Z,96241.41
2023-01-12T21:16:17.825Z,96240.03
2023-01-12T21:18:45.011Z,96238.00
2023-01-12T21:21:11.745Z,96242.13
2023-01-12T21:23:38.256Z,96232.81
2023-01-12T21:26:07.976Z,96231.13
2023-01-12T21:28:37.529Z,96227.69
2023-01-12T21:31:04.660Z,96234.00
2023-01-12T21:33:31.778Z,96231.41
2023-01-12T21:35:58.575Z,96227.50
2023-01-12T21:38:26.357Z,96220.16
2023-01-12T21:40:53.616Z,96225.38
2023-01-12T21:43:20.238Z,96230.31
2023-01-12T21:45:49.079Z,96228.66
2023-01-12T21:48:17.539Z,96221.81
2023-01-12T21:50:44.597Z,96206.75
2023-01-12T21:53:18.398Z,96219.25
2023-01-12T21:56:00.597Z,96223.06
2023-01-12T21:58:28.340Z,96230.16
2023-01-12T22:00:56.103Z,96216.16
2023-01-12T22:03:27.196Z,96227.75
2023-01-12T22:05:54.913Z,96225.94
2023-01-12T22:08:21.864Z,96226.03
2023-01-12T22:10:48.307Z,96234.31
2023-01-12T22:13:17.136Z,96225.78
2023-01-12T22:15:43.900Z,96213.53
2023-01-12T22:18:10.726Z,96236.59
2023-01-12T22:20:38.563Z,96236.16
2023-01-12T22:23:05.014Z,96229.69
2023-01-12T22:25:31.573Z,96230.50
2023-01-12T22:27:58.034Z,96218.75
2023-01-12T22:33:06.388Z,96204.25
2023-01-12T22:35:33.738Z,96195.03
2023-01-12T22:38:00.232Z,96205.94
2023-01-12T22:40:26.733Z,96183.97
2023-01-12T22:43:11.967Z,96207.53
2023-01-12T22:45:38.982Z,96204.13
2023-01-12T22:48:06.020Z,96182.06
2023-01-12T22:50:54.390Z,96210.03
2023-01-12T22:53:22.655Z,96208.63
2023-01-12T22:55:49.123Z,96211.13
2023-01-12T22:58:15.686Z,96216.53
2023-01-12T23:00:43.966Z,96201.13
2023-01-12T23:03:13.683Z,96189.25
2023-01-12T23:05:49.179Z,96195.00
2023-01-12T23:08:16.817Z,96183.16
2023-01-12T23:10:44.371Z,96186.16
2023-01-12T23:13:21.487Z,96188.09
2023-01-12T23:15:55.770Z,96190.34
2023-01-12T23:18:29.024Z,96167.47
2023-01-12T23:21:11.371Z,96188.00
2023-01-12T23:23:39.157Z,96186.13
2023-01-12T23:26:11.710Z,96192.47
2023-01-12T23:28:43.856Z,96184.78
2023-01-12T23:31:13.563Z,96174.47
2023-01-12T23:33:43.118Z,96167.41
2023-01-12T23:36:13.078Z,96154.25
2023-01-12T23:38:39.935Z,96169.94
2023-01-12T23:41:11.757Z,96178.41
2023-01-12T23:43:38.506Z,96162.03
2023-01-12T23:46:06.456Z,96187.91
2023-01-12T23:48:34.057Z,96169.63
2023-01-12T23:51:01.530Z,96172.00
2023-01-12T23:53:29.100Z,96177.06
2023-01-12T23:55:56.646Z,96181.22
2023-01-12T23:58:24.244Z,96170.78
